sensor_id;sensor_type;location;lat;lon;timestamp;temperature;humidity
19829;DHT22;10075;50.924;4.396;2022-10-17T00:02:23;15.90;99.90
19829;DHT22;10075;50.924;4.396;2022-10-17T00:04:50;16.00;99.90
19829;DHT22;10075;50.924;4.396;2022-10-17T00:07:17;15.90;99.90
19829;DHT22;10075;50.924;4.396;2022-10-17T00:09:45;15.90;99.90
19829;DHT22;10075;50.924;4.396;2022-10-17T00:12:12;15.90;99.90
19829;DHT22;10075;50.924;4.396;2022-10-17T00:14:39;15.90;99.90
19829;DHT22;10075;50.924;4.396;2022-10-17T00:17:06;15.90;99.90
19829;DHT22;10075;50.924;4.396;2022-10-17T00:19:33;16.00;99.90
19829;DHT22;10075;50.924;4.396;2022-10-17T00:22:00;16.00;99.90
19829;DHT22;10075;50.924;4.396;2022-10-17T00:24:29;16.00;99.90
19829;DHT22;10075;50.924;4.396;2022-10-17T00:26:57;16.10;99.90
19829;DHT22;10075;50.924;4.396;2022-10-17T00:29:24;16.20;99.90
19829;DHT22;10075;50.924;4.396;2022-10-17T00:31:53;16.20;99.90
19829;DHT22;10075;50.924;4.396;2022-10-17T00:34:21;16.30;99.90
19829;DHT22;10075;50.924;4.396;2022-10-17T00:36:48;16.40;99.90
19829;DHT22;10075;50.924;4.396;2022-10-17T00:39:14;16.40;99.90
19829;DHT22;10075;50.924;4.396;2022-10-17T00:41:41;16.40;99.90
19829;DHT22;10075;50.924;4.396;2022-10-17T00:47:15;16.70;99.90
19829;DHT22;10075;50.924;4.396;2022-10-17T00:49:43;16.60;99.90
19829;DHT22;10075;50.924;4.396;2022-10-17T00:52:13;16.70;99.90
19829;DHT22;10075;50.924;4.396;2022-10-17T00:54:44;16.60;99.90
19829;DHT22;10075;50.924;4.396;2022-10-17T00:57:11;16.70;99.90
19829;DHT22;10075;50.924;4.396;2022-10-17T00:59:40;16.70;99.90
19829;DHT22;10075;50.924;4.396;2022-10-17T01:02:15;16.80;99.90
19829;DHT22;10075;50.924;4.396;2022-10-17T01:04:45;16.80;99.90
19829;DHT22;10075;50.924;4.396;2022-10-17T01:07:13;16.80;99.90
19829;DHT22;10075;50.924;4.396;2022-10-17T01:09:40;16.90;99.90
19829;DHT22;10075;50.924;4.396;2022-10-17T01:12:14;16.90;99.90
19829;DHT22;10075;50.924;4.396;2022-10-17T01:14:49;16.90;99.90
19829;DHT22;10075;50.924;4.396;2022-10-17T01:17:25;16.90;99.90
19829;DHT22;10075;50.924;4.396;2022-10-17T01:23:23;16.80;99.90
19829;DHT22;10075;50.924;4.396;2022-10-17T01:25:55;16.80;99.90
19829;DHT22;10075;50.924;4.396;2022-10-17T01:31:18;17.20;99.90
19829;DHT22;10075;50.924;4.396;2022-10-17T01:33:55;17.10;99.90
19829;DHT22;10075;50.924;4.396;2022-10-17T01:36:36;17.10;99.90
19829;DHT22;10075;50.924;4.396;2022-10-17T01:39:13;17.30;99.90
19829;DHT22;10075;50.924;4.396;2022-10-17T01:41:45;17.30;99.90
19829;DHT22;10075;50.924;4.396;2022-10-17T01:44:18;17.20;99.90
19829;DHT22;10075;50.924;4.396;2022-10-17T01:46:49;17.30;99.90
19829;DHT22;10075;50.924;4.396;2022-10-17T01:49:20;17.30;99.90
19829;DHT22;10075;50.924;4.396;2022-10-17T01:51:52;17.20;99.90
19829;DHT22;10075;50.924;4.396;2022-10-17T01:54:23;17.40;99.90
19829;DHT22;10075;50.924;4.396;2022-10-17T01:56:54;17.40;99.90
19829;DHT22;10075;50.924;4.396;2022-10-17T01:59:24;17.40;99.90
19829;DHT22;10075;50.924;4.396;2022-10-17T02:01:54;17.50;99.90
19829;DHT22;10075;50.924;4.396;2022-10-17T02:04:23;17.50;99.90
19829;DHT22;10075;50.924;4.396;2022-10-17T02:06:50;17.50;99.90
19829;DHT22;10075;50.924;4.396;2022-10-17T02:09:20;17.60;99.90
19829;DHT22;10075;50.924;4.396;2022-10-17T02:12:05;17.50;99.90
19829;DHT22;10075;50.924;4.396;2022-10-17T02:14:43;17.50;99.90
19829;DHT22;10075;50.924;4.396;2022-10-17T02:17:19;17.50;99.90
19829;DHT22;10075;50.924;4.396;2022-10-17T02:19:53;17.50;99.90
19829;DHT22;10075;50.924;4.396;2022-10-17T02:22:31;17.50;99.90
19829;DHT22;10075;50.924;4.396;2022-10-17T02:25:08;17.50;99.90
19829;DHT22;10075;50.924;4.396;2022-10-17T02:27:43;17.60;99.90
19829;DHT22;10075;50.924;4.396;2022-10-17T02:30:12;17.50;99.90
19829;DHT22;10075;50.924;4.396;2022-10-17T02:32:45;17.60;99.90
19829;DHT22;10075;50.924;4.396;2022-10-17T02:35:17;17.70;99.90
19829;DHT22;10075;50.924;4.396;2022-10-17T02:37:46;17.60;99.90
19829;DHT22;10075;50.924;4.396;2022-10-17T02:40:15;17.60;99.90
19829;DHT22;10075;50.924;4.396;2022-10-17T02:42:44;17.70;99.90
19829;DHT22;10075;50.924;4.396;2022-10-17T02:45:13;17.90;99.90
19829;DHT22;10075;50.924;4.396;2022-10-17T02:47:50;17.90;99.90
19829;DHT22;10075;50.924;4.396;2022-10-17T02:50:26;18.00;99.90
19829;DHT22;10075;50.924;4.396;2022-10-17T02:52:59;18.00;99.90
19829;DHT22;10075;50.924;4.396;2022-10-17T02:55:29;18.10;99.90
19829;DHT22;10075;50.924;4.396;2022-10-17T02:57:59;17.90;99.90
19829;DHT22;10075;50.924;4.396;2022-10-17T03:00:29;18.00;99.90
19829;DHT22;10075;50.924;4.396;2022-10-17T03:02:58;18.10;99.90
19829;DHT22;10075;50.924;4.396;2022-10-17T03:05:27;18.20;99.90
19829;DHT22;10075;50.924;4.396;2022-10-17T03:07:55;18.20;99.90
19829;DHT22;10075;50.924;4.396;2022-10-17T03:10:22;18.20;99.90
19829;DHT22;10075;50.924;4.396;2022-10-17T03:12:49;18.20;99.90
19829;DHT22;10075;50.924;4.396;2022-10-17T03:15:16;18.40;99.90
19829;DHT22;10075;50.924;4.396;2022-10-17T03:17:43;18.40;99.90
19829;DHT22;10075;50.924;4.396;2022-10-17T03:20:12;18.30;99.90
19829;DHT22;10075;50.924;4.396;2022-10-17T03:22:39;18.50;99.90
19829;DHT22;10075;50.924;4.396;2022-10-17T03:25:07;18.50;99.90
19829;DHT22;10075;50.924;4.396;2022-10-17T03:27:33;18.50;99.90
19829;DHT22;10075;50.924;4.396;2022-10-17T03:30:04;18.60;99.90
19829;DHT22;10075;50.924;4.396;2022-10-17T03:32:32;18.60;99.90
19829;DHT22;10075;50.924;4.396;2022-10-17T03:34:59;18.60;99.90
19829;DHT22;10075;50.924;4.396;2022-10-17T03:37:27;18.60;99.90
19829;DHT22;10075;50.924;4.396;2022-10-17T03:39:54;18.70;99.90
19829;DHT22;10075;50.924;4.396;2022-10-17T03:42:21;18.70;99.90
19829;DHT22;10075;50.924;4.396;2022-10-17T03:44:48;18.70;99.90
19829;DHT22;10075;50.924;4.396;2022-10-17T03:47:15;18.70;99.90
19829;DHT22;10075;50.924;4.396;2022-10-17T03:49:42;18.70;99.90
19829;DHT22;10075;50.924;4.396;2022-10-17T03:52:12;18.70;99.90
19829;DHT22;10075;50.924;4.396;2022-10-17T03:54:40;18.80;99.90
19829;DHT22;10075;50.924;4.396;2022-10-17T03:57:07;18.80;99.90
19829;DHT22;10075;50.924;4.396;2022-10-17T03:59:34;18.80;99.90
19829;DHT22;10075;50.924;4.396;2022-10-17T04:02:01;18.90;99.90
19829;DHT22;10075;50.924;4.396;2022-10-17T04:04:28;18.90;99.90
19829;DHT22;10075;50.924;4.396;2022-10-17T04:06:55;18.70;99.90
19829;DHT22;10075;50.924;4.396;2022-10-17T04:09:22;18.70;99.90
19829;DHT22;10075;50.924;4.396;2022-10-17T04:11:50;18.70;99.90
19829;DHT22;10075;50.924;4.396;2022-10-17T04:14:17;18.70;99.90
19829;DHT22;10075;50.924;4.396;2022-10-17T04:16:44;18.70;99.90
19829;DHT22;10075;50.924;4.396;2022-10-17T04:19:12;18.70;99.90
19829;DHT22;10075;50.924;4.396;2022-10-17T04:21:39;18.60;99.90
19829;DHT22;10075;50.924;4.396;2022-10-17T04:24:07;18.60;99.90
19829;DHT22;10075;50.924;4.396;2022-10-17T04:26:35;18.70;99.90
19829;DHT22;10075;50.924;4.396;2022-10-17T04:29:04;18.60;99.90
19829;DHT22;10075;50.924;4.396;2022-10-17T04:31:31;18.60;99.90
19829;DHT22;10075;50.924;4.396;2022-10-17T04:33:58;18.70;99.90
19829;DHT22;10075;50.924;4.396;2022-10-17T04:36:25;18.80;99.90
19829;DHT22;10075;50.924;4.396;2022-10-17T04:38:52;18.80;99.90
19829;DHT22;10075;50.924;4.396;2022-10-17T04:41:19;18.70;99.90
19829;DHT22;10075;50.924;4.396;2022-10-17T04:43:46;18.50;99.90
19829;DHT22;10075;50.924;4.396;2022-10-17T04:46:14;18.60;99.90
19829;DHT22;10075;50.924;4.396;2022-10-17T04:48:42;18.60;99.90
19829;DHT22;10075;50.924;4.396;2022-10-17T04:51:11;18.60;99.90
19829;DHT22;10075;50.924;4.396;2022-10-17T04:53:39;18.60;99.90
19829;DHT22;10075;50.924;4.396;2022-10-17T04:56:08;18.50;99.90
19829;DHT22;10075;50.924;4.396;2022-10-17T04:58:35;18.50;99.90
19829;DHT22;10075;50.924;4.396;2022-10-17T05:01:06;18.50;99.90
19829;DHT22;10075;50.924;4.396;2022-10-17T05:03:35;18.50;99.90
19829;DHT22;10075;50.924;4.396;2022-10-17T05:06:04;18.40;99.90
19829;DHT22;10075;50.924;4.396;2022-10-17T05:08:31;18.40;99.90
19829;DHT22;10075;50.924;4.396;2022-10-17T05:10:58;18.40;99.90
19829;DHT22;10075;50.924;4.396;2022-10-17T05:13:25;18.40;99.90
19829;DHT22;10075;50.924;4.396;2022-10-17T05:15:52;18.30;99.90
19829;DHT22;10075;50.924;4.396;2022-10-17T05:18:19;18.40;99.90
19829;DHT22;10075;50.924;4.396;2022-10-17T05:20:47;18.30;99.90
19829;DHT22;10075;50.924;4.396;2022-10-17T05:23:14;18.40;99.90
19829;DHT22;10075;50.924;4.396;2022-10-17T05:25:41;18.40;99.90
19829;DHT22;10075;50.924;4.396;2022-10-17T05:28:08;18.40;99.90
19829;DHT22;10075;50.924;4.396;2022-10-17T05:30:38;18.40;99.90
19829;DHT22;10075;50.924;4.396;2022-10-17T05:33:05;18.50;99.90
19829;DHT22;10075;50.924;4.396;2022-10-17T05:35:32;18.60;99.90
19829;DHT22;10075;50.924;4.396;2022-10-17T05:38:00;18.60;99.90
19829;DHT22;10075;50.924;4.396;2022-10-17T05:40:27;18.60;99.90
19829;DHT22;10075;50.924;4.396;2022-10-17T05:42:54;18.60;99.90
19829;DHT22;10075;50.924;4.396;2022-10-17T05:45:21;18.60;99.90
19829;DHT22;10075;50.924;4.396;2022-10-17T05:47:48;18.70;99.90
19829;DHT22;10075;50.924;4.396;2022-10-17T05:50:15;18.70;99.90
19829;DHT22;10075;50.924;4.396;2022-10-17T05:52:42;18.70;99.90
19829;DHT22;10075;50.924;4.396;2022-10-17T05:55:10;18.70;99.90
19829;DHT22;10075;50.924;4.396;2022-10-17T05:57:37;18.80;99.90
19829;DHT22;10075;50.924;4.396;2022-10-17T06:00:05;18.70;99.90
19829;DHT22;10075;50.924;4.396;2022-10-17T06:02:32;18.70;99.90
19829;DHT22;10075;50.924;4.396;2022-10-17T06:04:59;18.70;99.90
19829;DHT22;10075;50.924;4.396;2022-10-17T06:07:26;18.80;99.90
19829;DHT22;10075;50.924;4.396;2022-10-17T06:09:53;18.80;99.90
19829;DHT22;10075;50.924;4.396;2022-10-17T06:12:22;18.90;99.90
19829;DHT22;10075;50.924;4.396;2022-10-17T06:14:49;18.80;99.90
19829;DHT22;10075;50.924;4.396;2022-10-17T06:17:16;18.70;99.90
19829;DHT22;10075;50.924;4.396;2022-10-17T06:19:43;18.70;99.90
19829;DHT22;10075;50.924;4.396;2022-10-17T06:22:10;18.80;99.90
19829;DHT22;10075;50.924;4.396;2022-10-17T06:24:37;18.90;99.90
19829;DHT22;10075;50.924;4.396;2022-10-17T06:27:04;18.80;99.90
19829;DHT22;10075;50.924;4.396;2022-10-17T06:29:32;18.90;99.90
19829;DHT22;10075;50.924;4.396;2022-10-17T06:31:59;18.80;99.90
19829;DHT22;10075;50.924;4.396;2022-10-17T06:34:26;18.80;99.90
19829;DHT22;10075;50.924;4.396;2022-10-17T06:36:53;18.90;99.90
19829;DHT22;10075;50.924;4.396;2022-10-17T06:39:20;19.00;99.90
19829;DHT22;10075;50.924;4.396;2022-10-17T06:41:47;18.90;99.90
19829;DHT22;10075;50.924;4.396;2022-10-17T06:44:14;18.90;99.90
19829;DHT22;10075;50.924;4.396;2022-10-17T06:46:43;18.90;99.90
19829;DHT22;10075;50.924;4.396;2022-10-17T06:49:10;19.00;99.90
19829;DHT22;10075;50.924;4.396;2022-10-17T06:51:37;19.20;99.90
19829;DHT22;10075;50.924;4.396;2022-10-17T06:54:04;19.10;99.90
19829;DHT22;10075;50.924;4.396;2022-10-17T06:56:31;19.20;99.90
19829;DHT22;10075;50.924;4.396;2022-10-17T06:58:59;18.90;99.90
19829;DHT22;10075;50.924;4.396;2022-10-17T07:01:26;18.90;99.90
19829;DHT22;10075;50.924;4.396;2022-10-17T07:03:55;18.80;99.90
19829;DHT22;10075;50.924;4.396;2022-10-17T07:06:23;18.90;99.90
19829;DHT22;10075;50.924;4.396;2022-10-17T07:08:50;19.10;99.90
19829;DHT22;10075;50.924;4.396;2022-10-17T07:11:19;19.20;99.90
19829;DHT22;10075;50.924;4.396;2022-10-17T07:13:47;19.30;99.90
19829;DHT22;10075;50.924;4.396;2022-10-17T07:16:15;19.20;99.90
19829;DHT22;10075;50.924;4.396;2022-10-17T07:18:43;19.10;99.90
19829;DHT22;10075;50.924;4.396;2022-10-17T07:21:13;19.10;99.90
19829;DHT22;10075;50.924;4.396;2022-10-17T07:23:40;19.10;99.90
19829;DHT22;10075;50.924;4.396;2022-10-17T07:26:12;19.30;99.90
19829;DHT22;10075;50.924;4.396;2022-10-17T07:28:41;19.20;99.90
19829;DHT22;10075;50.924;4.396;2022-10-17T07:31:11;19.30;99.90
19829;DHT22;10075;50.924;4.396;2022-10-17T07:33:39;19.20;99.90
19829;DHT22;10075;50.924;4.396;2022-10-17T07:36:07;19.10;99.90
19829;DHT22;10075;50.924;4.396;2022-10-17T07:38:35;18.80;99.90
19829;DHT22;10075;50.924;4.396;2022-10-17T07:41:04;18.50;99.90
19829;DHT22;10075;50.924;4.396;2022-10-17T07:43:32;18.10;99.90
19829;DHT22;10075;50.924;4.396;2022-10-17T07:46:00;18.00;99.90
19829;DHT22;10075;50.924;4.396;2022-10-17T07:48:27;17.80;99.90
19829;DHT22;10075;50.924;4.396;2022-10-17T07:50:54;17.70;99.90
19829;DHT22;10075;50.924;4.396;2022-10-17T07:53:21;17.90;99.90
19829;DHT22;10075;50.924;4.396;2022-10-17T07:55:50;18.00;99.90
19829;DHT22;10075;50.924;4.396;2022-10-17T07:58:17;18.00;99.90
19829;DHT22;10075;50.924;4.396;2022-10-17T08:00:44;18.00;99.90
19829;DHT22;10075;50.924;4.396;2022-10-17T08:03:13;18.00;99.90
19829;DHT22;10075;50.924;4.396;2022-10-17T08:05:40;18.00;99.90
19829;DHT22;10075;50.924;4.396;2022-10-17T08:08:07;18.10;99.90
19829;DHT22;10075;50.924;4.396;2022-10-17T08:10:34;18.20;99.90
19829;DHT22;10075;50.924;4.396;2022-10-17T08:13:02;18.30;99.90
19829;DHT22;10075;50.924;4.396;2022-10-17T08:15:29;18.30;99.90
19829;DHT22;10075;50.924;4.396;2022-10-17T08:17:57;18.30;99.90
19829;DHT22;10075;50.924;4.396;2022-10-17T08:20:25;18.30;99.90
19829;DHT22;10075;50.924;4.396;2022-10-17T08:22:52;18.30;99.90
19829;DHT22;10075;50.924;4.396;2022-10-17T08:25:20;18.20;99.90
19829;DHT22;10075;50.924;4.396;2022-10-17T08:27:47;18.00;99.90
19829;DHT22;10075;50.924;4.396;2022-10-17T08:30:16;18.00;99.90
19829;DHT22;10075;50.924;4.396;2022-10-17T08:32:43;18.10;99.90
19829;DHT22;10075;50.924;4.396;2022-10-17T08:35:10;18.20;99.90
19829;DHT22;10075;50.924;4.396;2022-10-17T08:37:40;18.20;99.90
19829;DHT22;10075;50.924;4.396;2022-10-17T08:40:14;18.20;99.90
19829;DHT22;10075;50.924;4.396;2022-10-17T08:42:57;18.30;99.90
19829;DHT22;10075;50.924;4.396;2022-10-17T08:45:31;18.40;99.90
19829;DHT22;10075;50.924;4.396;2022-10-17T08:47:59;18.40;99.90
19829;DHT22;10075;50.924;4.396;2022-10-17T08:50:35;18.50;99.90
19829;DHT22;10075;50.924;4.396;2022-10-17T08:53:06;18.70;99.90
19829;DHT22;10075;50.924;4.396;2022-10-17T08:55:37;18.70;99.90
19829;DHT22;10075;50.924;4.396;2022-10-17T08:58:12;18.70;99.90
19829;DHT22;10075;50.924;4.396;2022-10-17T09:00:45;18.60;99.90
19829;DHT22;10075;50.924;4.396;2022-10-17T09:03:25;18.60;99.90
19829;DHT22;10075;50.924;4.396;2022-10-17T09:06:06;18.70;99.90
19829;DHT22;10075;50.924;4.396;2022-10-17T09:08:42;18.70;99.90
19829;DHT22;10075;50.924;4.396;2022-10-17T09:11:19;18.70;99.90
19829;DHT22;10075;50.924;4.396;2022-10-17T09:13:59;18.80;99.90
19829;DHT22;10075;50.924;4.396;2022-10-17T09:16:49;18.70;99.90
19829;DHT22;10075;50.924;4.396;2022-10-17T09:19:24;18.70;99.90
19829;DHT22;10075;50.924;4.396;2022-10-17T09:21:55;18.70;99.90
19829;DHT22;10075;50.924;4.396;2022-10-17T09:24:37;18.70;99.90
19829;DHT22;10075;50.924;4.396;2022-10-17T09:27:17;18.70;99.90
19829;DHT22;10075;50.924;4.396;2022-10-17T09:29:48;18.70;99.90
19829;DHT22;10075;50.924;4.396;2022-10-17T09:32:21;18.70;99.90
19829;DHT22;10075;50.924;4.396;2022-10-17T09:34:49;18.80;99.90
19829;DHT22;10075;50.924;4.396;2022-10-17T09:37:17;18.80;99.90
19829;DHT22;10075;50.924;4.396;2022-10-17T09:39:44;18.80;99.90
19829;DHT22;10075;50.924;4.396;2022-10-17T09:42:13;18.80;99.90
19829;DHT22;10075;50.924;4.396;2022-10-17T09:44:48;18.80;99.90
19829;DHT22;10075;50.924;4.396;2022-10-17T09:47:28;18.90;99.90
19829;DHT22;10075;50.924;4.396;2022-10-17T09:49:56;19.00;99.90
19829;DHT22;10075;50.924;4.396;2022-10-17T09:52:27;19.00;99.90
19829;DHT22;10075;50.924;4.396;2022-10-17T09:54:58;19.20;99.90
19829;DHT22;10075;50.924;4.396;2022-10-17T09:57:28;19.20;99.90
19829;DHT22;10075;50.924;4.396;2022-10-17T09:59:58;19.30;99.90
19829;DHT22;10075;50.924;4.396;2022-10-17T10:02:29;19.40;99.90
19829;DHT22;10075;50.924;4.396;2022-10-17T10:05:00;19.50;99.90
19829;DHT22;10075;50.924;4.396;2022-10-17T10:07:29;19.60;99.90
19829;DHT22;10075;50.924;4.396;2022-10-17T10:09:57;19.50;99.90
19829;DHT22;10075;50.924;4.396;2022-10-17T10:12:25;19.60;99.90
19829;DHT22;10075;50.924;4.396;2022-10-17T10:14:53;19.50;99.90
19829;DHT22;10075;50.924;4.396;2022-10-17T10:17:34;19.50;99.90
19829;DHT22;10075;50.924;4.396;2022-10-17T10:20:05;19.50;99.90
19829;DHT22;10075;50.924;4.396;2022-10-17T10:23:10;19.40;99.90
19829;DHT22;10075;50.924;4.396;2022-10-17T10:25:38;19.50;99.90
19829;DHT22;10075;50.924;4.396;2022-10-17T10:28:15;19.50;99.90
19829;DHT22;10075;50.924;4.396;2022-10-17T10:30:47;19.50;99.90
19829;DHT22;10075;50.924;4.396;2022-10-17T10:33:18;19.50;99.90
19829;DHT22;10075;50.924;4.396;2022-10-17T10:35:52;19.60;99.90
19829;DHT22;10075;50.924;4.396;2022-10-17T10:38:21;19.70;99.90
19829;DHT22;10075;50.924;4.396;2022-10-17T10:40:50;19.70;99.90
19829;DHT22;10075;50.924;4.396;2022-10-17T10:43:25;19.70;99.90
19829;DHT22;10075;50.924;4.396;2022-10-17T10:45:53;19.70;99.90
19829;DHT22;10075;50.924;4.396;2022-10-17T10:48:23;19.70;99.90
19829;DHT22;10075;50.924;4.396;2022-10-17T10:50:53;19.70;99.90
19829;DHT22;10075;50.924;4.396;2022-10-17T10:53:31;19.80;99.90
19829;DHT22;10075;50.924;4.396;2022-10-17T10:56:01;19.90;99.90
19829;DHT22;10075;50.924;4.396;2022-10-17T10:58:39;19.90;99.90
19829;DHT22;10075;50.924;4.396;2022-10-17T11:01:13;19.90;99.90
19829;DHT22;10075;50.924;4.396;2022-10-17T11:03:54;20.00;99.90
19829;DHT22;10075;50.924;4.396;2022-10-17T11:06:26;20.10;99.90
19829;DHT22;10075;50.924;4.396;2022-10-17T11:09:09;20.10;99.90
19829;DHT22;10075;50.924;4.396;2022-10-17T11:11:40;20.10;99.90
19829;DHT22;10075;50.924;4.396;2022-10-17T11:14:13;20.10;99.90
19829;DHT22;10075;50.924;4.396;2022-10-17T11:16:46;20.10;99.90
19829;DHT22;10075;50.924;4.396;2022-10-17T11:19:23;20.10;99.90
19829;DHT22;10075;50.924;4.396;2022-10-17T11:22:01;20.10;99.90
19829;DHT22;10075;50.924;4.396;2022-10-17T11:24:34;20.00;99.90
19829;DHT22;10075;50.924;4.396;2022-10-17T11:27:05;20.00;99.90
19829;DHT22;10075;50.924;4.396;2022-10-17T11:29:34;19.90;99.90
19829;DHT22;10075;50.924;4.396;2022-10-17T11:32:06;19.80;99.90
19829;DHT22;10075;50.924;4.396;2022-10-17T11:34:39;19.70;99.90
19829;DHT22;10075;50.924;4.396;2022-10-17T11:37:13;19.70;99.90
19829;DHT22;10075;50.924;4.396;2022-10-17T11:39:43;19.80;99.90
19829;DHT22;10075;50.924;4.396;2022-10-17T11:42:16;19.90;99.90
19829;DHT22;10075;50.924;4.396;2022-10-17T11:44:48;19.70;99.90
19829;DHT22;10075;50.924;4.396;2022-10-17T11:47:27;19.60;99.90
19829;DHT22;10075;50.924;4.396;2022-10-17T11:50:02;19.80;99.90
19829;DHT22;10075;50.924;4.396;2022-10-17T11:52:36;20.00;99.90
19829;DHT22;10075;50.924;4.396;2022-10-17T11:55:10;20.00;99.90
19829;DHT22;10075;50.924;4.396;2022-10-17T11:57:48;20.00;99.90
19829;DHT22;10075;50.924;4.396;2022-10-17T12:00:42;20.00;99.90
19829;DHT22;10075;50.924;4.396;2022-10-17T12:03:25;20.10;99.90
19829;DHT22;10075;50.924;4.396;2022-10-17T12:05:58;20.30;99.90
19829;DHT22;10075;50.924;4.396;2022-10-17T12:08:32;20.40;99.90
19829;DHT22;10075;50.924;4.396;2022-10-17T12:11:08;20.60;99.90
19829;DHT22;10075;50.924;4.396;2022-10-17T12:13:48;20.70;99.90
19829;DHT22;10075;50.924;4.396;2022-10-17T12:16:49;20.80;99.90
19829;DHT22;10075;50.924;4.396;2022-10-17T12:19:24;20.80;99.90
19829;DHT22;10075;50.924;4.396;2022-10-17T12:24:41;20.60;99.90
19829;DHT22;10075;50.924;4.396;2022-10-17T12:27:37;20.30;99.90
19829;DHT22;10075;50.924;4.396;2022-10-17T12:30:19;20.30;99.90
19829;DHT22;10075;50.924;4.396;2022-10-17T12:32:55;20.20;99.90
19829;DHT22;10075;50.924;4.396;2022-10-17T12:35:24;20.30;99.90
19829;DHT22;10075;50.924;4.396;2022-10-17T12:38:20;20.20;99.90
19829;DHT22;10075;50.924;4.396;2022-10-17T12:41:02;20.10;99.90
19829;DHT22;10075;50.924;4.396;2022-10-17T12:43:46;20.10;99.90
19829;DHT22;10075;50.924;4.396;2022-10-17T12:46:47;20.00;99.90
19829;DHT22;10075;50.924;4.396;2022-10-17T12:49:42;20.20;99.90
19829;DHT22;10075;50.924;4.396;2022-10-17T12:55:11;20.20;99.90
19829;DHT22;10075;50.924;4.396;2022-10-17T12:57:51;20.30;99.90
19829;DHT22;10075;50.924;4.396;2022-10-17T13:00:23;20.40;99.90
19829;DHT22;10075;50.924;4.396;2022-10-17T13:02:54;20.40;99.90
19829;DHT22;10075;50.924;4.396;2022-10-17T13:05:26;20.50;99.90
19829;DHT22;10075;50.924;4.396;2022-10-17T13:07:56;20.70;99.90
19829;DHT22;10075;50.924;4.396;2022-10-17T13:10:27;20.80;99.90
19829;DHT22;10075;50.924;4.396;2022-10-17T13:13:05;20.90;99.90
19829;DHT22;10075;50.924;4.396;2022-10-17T13:15:35;20.90;99.90
19829;DHT22;10075;50.924;4.396;2022-10-17T13:18:03;20.90;99.90
19829;DHT22;10075;50.924;4.396;2022-10-17T13:20:31;20.80;99.90
19829;DHT22;10075;50.924;4.396;2022-10-17T13:22:58;20.90;99.90
19829;DHT22;10075;50.924;4.396;2022-10-17T13:25:29;21.00;99.90
19829;DHT22;10075;50.924;4.396;2022-10-17T13:28:11;21.20;99.90
19829;DHT22;10075;50.924;4.396;2022-10-17T13:30:39;21.30;99.90
19829;DHT22;10075;50.924;4.396;2022-10-17T13:33:28;21.30;99.90
19829;DHT22;10075;50.924;4.396;2022-10-17T13:35:57;21.40;99.90
19829;DHT22;10075;50.924;4.396;2022-10-17T13:38:27;21.50;99.90
19829;DHT22;10075;50.924;4.396;2022-10-17T13:40:59;21.50;99.90
19829;DHT22;10075;50.924;4.396;2022-10-17T13:43:26;21.40;99.90
19829;DHT22;10075;50.924;4.396;2022-10-17T13:45:56;21.30;99.90
19829;DHT22;10075;50.924;4.396;2022-10-17T13:48:27;21.20;99.90
19829;DHT22;10075;50.924;4.396;2022-10-17T13:50:55;21.00;99.90
19829;DHT22;10075;50.924;4.396;2022-10-17T13:53:29;20.80;99.90
19829;DHT22;10075;50.924;4.396;2022-10-17T13:56:00;20.70;99.90
19829;DHT22;10075;50.924;4.396;2022-10-17T13:58:31;20.70;99.90
19829;DHT22;10075;50.924;4.396;2022-10-17T14:00:59;20.70;99.90
19829;DHT22;10075;50.924;4.396;2022-10-17T14:03:26;20.80;99.90
19829;DHT22;10075;50.924;4.396;2022-10-17T14:06:11;20.70;99.90
19829;DHT22;10075;50.924;4.396;2022-10-17T14:08:53;20.70;99.90
19829;DHT22;10075;50.924;4.396;2022-10-17T14:11:29;20.70;99.90
19829;DHT22;10075;50.924;4.396;2022-10-17T14:13:59;20.80;99.90
19829;DHT22;10075;50.924;4.396;2022-10-17T14:16:32;20.90;99.90
19829;DHT22;10075;50.924;4.396;2022-10-17T14:19:00;21.00;99.90
19829;DHT22;10075;50.924;4.396;2022-10-17T14:21:27;21.10;99.90
19829;DHT22;10075;50.924;4.396;2022-10-17T14:24:21;21.10;99.90
19829;DHT22;10075;50.924;4.396;2022-10-17T14:26:52;21.10;99.90
19829;DHT22;10075;50.924;4.396;2022-10-17T14:29:22;21.00;99.90
19829;DHT22;10075;50.924;4.396;2022-10-17T14:31:56;21.10;99.90
19829;DHT22;10075;50.924;4.396;2022-10-17T14:34:27;21.10;99.90
19829;DHT22;10075;50.924;4.396;2022-10-17T14:36:55;21.10;99.90
19829;DHT22;10075;50.924;4.396;2022-10-17T14:39:24;21.10;99.90
19829;DHT22;10075;50.924;4.396;2022-10-17T14:41:53;21.20;99.90
19829;DHT22;10075;50.924;4.396;2022-10-17T14:44:24;21.20;99.90
19829;DHT22;10075;50.924;4.396;2022-10-17T14:46:56;21.20;99.90
19829;DHT22;10075;50.924;4.396;2022-10-17T14:49:32;21.20;99.90
19829;DHT22;10075;50.924;4.396;2022-10-17T14:52:24;21.30;99.90
19829;DHT22;10075;50.924;4.396;2022-10-17T14:54:52;21.30;99.90
19829;DHT22;10075;50.924;4.396;2022-10-17T14:57:23;21.20;99.90
19829;DHT22;10075;50.924;4.396;2022-10-17T14:59:50;21.10;99.90
19829;DHT22;10075;50.924;4.396;2022-10-17T15:02:17;21.00;99.90
19829;DHT22;10075;50.924;4.396;2022-10-17T15:04:44;21.00;99.90
19829;DHT22;10075;50.924;4.396;2022-10-17T15:07:13;21.00;99.90
19829;DHT22;10075;50.924;4.396;2022-10-17T15:09:41;21.00;99.90
19829;DHT22;10075;50.924;4.396;2022-10-17T15:12:13;21.00;99.90
19829;DHT22;10075;50.924;4.396;2022-10-17T15:14:42;20.90;99.90
19829;DHT22;10075;50.924;4.396;2022-10-17T15:17:13;21.00;99.90
19829;DHT22;10075;50.924;4.396;2022-10-17T15:19:40;21.10;99.90
19829;DHT22;10075;50.924;4.396;2022-10-17T15:22:07;21.00;99.90
19829;DHT22;10075;50.924;4.396;2022-10-17T15:24:35;21.00;99.90
19829;DHT22;10075;50.924;4.396;2022-10-17T15:27:02;20.90;99.90
19829;DHT22;10075;50.924;4.396;2022-10-17T15:29:30;20.90;99.90
19829;DHT22;10075;50.924;4.396;2022-10-17T15:31:58;20.90;99.90
19829;DHT22;10075;50.924;4.396;2022-10-17T15:34:25;20.80;99.90
19829;DHT22;10075;50.924;4.396;2022-10-17T15:36:52;20.80;99.90
19829;DHT22;10075;50.924;4.396;2022-10-17T15:39:19;20.70;99.90
19829;DHT22;10075;50.924;4.396;2022-10-17T15:41:47;20.60;99.90
19829;DHT22;10075;50.924;4.396;2022-10-17T15:44:14;20.50;99.90
19829;DHT22;10075;50.924;4.396;2022-10-17T15:46:41;20.40;99.90
19829;DHT22;10075;50.924;4.396;2022-10-17T15:49:12;20.40;99.90
19829;DHT22;10075;50.924;4.396;2022-10-17T15:51:41;20.30;99.90
19829;DHT22;10075;50.924;4.396;2022-10-17T15:54:08;20.30;99.90
19829;DHT22;10075;50.924;4.396;2022-10-17T15:56:37;20.20;99.90
19829;DHT22;10075;50.924;4.396;2022-10-17T15:59:06;20.20;99.90
19829;DHT22;10075;50.924;4.396;2022-10-17T16:01:38;20.10;99.90
19829;DHT22;10075;50.924;4.396;2022-10-17T16:04:07;20.00;99.90
19829;DHT22;10075;50.924;4.396;2022-10-17T16:06:38;20.00;99.90
19829;DHT22;10075;50.924;4.396;2022-10-17T16:09:05;20.00;99.90